Pagina principale
METAR-TAF:

METAR-TAF

Aeroporti :

Aeroporto Internazionale di Gedda-Re Abd al-Aziz

Gedda, Arabia Saudita

latitudine: 21-42N, longitudine: 039-11E, altezza: 15 m

Osservazione

Il bollettino è stato emesso 1 ora e 4 minuti fa, alle 17:00 UTC
Vento 4 kt da nord-ovest
Temperature 30°C
Umidità 66%
Pressione 1011 hPa
Visibilità 10 km o più
Poco nuvoloso ad un'altezza di 4000 ft

METAR: OEJN 191700Z 32004KT 9999 FEW040 30/23 Q1011 NOSIG

Ora: 21:04 (18:04 UTC)

Previsione

Il bollettino è stato emesso 1 ora e 4 minuti fa, alle 17:00 UTC
Previsione valida dal 19 alle 18 UTC al 20 alle 24 UTC
Vento 8 kt da nord/nord-est
Visibilità 10 km o più
Poco nuvoloso ad un'altezza di 4000 ft
Evoluzione graduale
dal 20 alle 07 UTC al 20 alle 09 UTC
Vento 14 kt da ovest

TAF: OEJN 191700Z 1918/2024 03008KT 9999 FEW040 BECMG 2007/2009 28014KT

Osservazioni e previsioni meteorologiche di più di 4000 aeroporti (messaggi METAR e TAF).

Le stazioni disponibili sono rappresentate dai dischi gialli e rossi sulla carta.

Puntare il mouse per vedere il nome della stazione.

Clicca sopra per visualizzare le osservazioni e previsioni meteorologiche.

Per cambiare la mappa : fare clic sui pulsanti verdi con una croce nera per ingrandire, il pulsante verde con un trattino per diminuire, o sulla freccia verde per le mappe adiacenti.


METAR-TAF: